Terminal Aerodrome Forecast
Issued by NWS Wakefield, VA

Home | Current Version | Previous Version | Text Only | Print | Product List | Glossary On
Versions: 1 2 3 4 5 6 7 8 9 10 11 12 13 14 15 16 17 18
000
FTUS41 KAKQ 212300
TAFECG
TAF
KECG 212333Z 2200/2224 09005KT P6SM SCT050 OVC250
     FM220500 20003KT P6SM OVC200
     FM221500 33006KT P6SM BKN150=

USA.gov is the U.S. government's official web portal to all federal, state and local government web resources and services.